Sikinos — SVCL2 — position and weather

sailwx.info

Track history (hours):
 
Tides and Currents Weather Stations Pressure Air Temp Water Temp Dewpoint Dewpoint Depression Visibility Wind Speed Wind Dir Waves Ship Positions

Sikinos

Last reported at 2017-Oct-20 19:30 UTC. Time now 2017-Oct-20 19:42 UTC.
Position N 38°43' W 009°55'.

Length 184 m; draft 7.5 m.

Type: Tanker. MMSI: 241448000.

Date/timePositionNaut miles runAvg speedWind from/ knotsBaromVisibWave heightAir tempDewpointWater temp
2017-Oct-20 19:30N 38°43' W 009°55'510.3
2017-Oct-20 19:00N 38°38' W 009°54'510.8
2017-Oct-20 18:30N 38°32' W 009°53'511.1
2017-Oct-20 18:01N 38°27' W 009°51'611.4
2017-Oct-20 17:30N 38°21' W 009°49'611.2
2017-Oct-20 17:00N 38°16' W 009°48'611.3
2017-Oct-20 16:31N 38°10' W 009°46'611.2
2017-Oct-20 16:00N 38°05' W 009°45'611.4
2017-Oct-20 15:30N 37°59' W 009°43'711.4
2017-Oct-20 14:52N 37°52' W 009°41'1311.8
2017-Oct-20 13:47N 37°40' W 009°37'411.8
2017-Oct-20 13:27N 37°36' W 009°36'2811.2
2017-Oct-20 10:54N 37°08' W 009°28'39 9.8
2017-Oct-20 06:53N 36°40' W 008°54'513.2
2017-Oct-20 06:30N 36°41' W 008°48'713.2
2017-Oct-20 06:00N 36°42' W 008°40'713.2
2017-Oct-20 05:31N 36°44' W 008°32'713.1
2017-Oct-20 05:01N 36°45' W 008°24'713.4
2017-Oct-20 04:31N 36°47' W 008°16'713.6
2017-Oct-20 04:01N 36°49' W 008°08'  
2017-Oct-12 22:54N 36°41' W 008°06'410.6
2017-Oct-12 22:30N 36°39' W 008°11'510.6
2017-Oct-12 22:00N 36°38' W 008°17'510.7
2017-Oct-12 21:30N 36°36' W 008°23'710.5
2017-Oct-12 20:51N 36°33' W 008°31'6 9.9
2017-Oct-12 20:16N 36°31' W 008°38'2 9.7
2017-Oct-12 20:00N 36°30' W 008°40'710.5
2017-Oct-12 19:21N 36°28' W 008°49'410.7
2017-Oct-12 19:00N 36°27' W 008°53'710.6
2017-Oct-12 18:22N 36°26' W 009°01'511.0
2017-Oct-12 17:57N 36°27' W 009°07'511.0
2017-Oct-12 17:30N 36°28' W 009°13'610.7
2017-Oct-12 16:57N 36°29' W 009°20'1110.3
2017-Oct-12 15:52N 36°37' W 009°30'4811.6
2017-Oct-12 11:42N 37°23' W 009°50'312.5
2017-Oct-12 11:27N 37°26' W 009°50'612.6
2017-Oct-12 11:00N 37°32' W 009°52'1112.6
2017-Oct-12 10:09N 37°42' W 009°55'313.3
2017-Oct-12 09:57N 37°45' W 009°56'613.5
2017-Oct-12 09:28N 37°51' W 009°58'613.5
2017-Oct-12 09:00N 37°57' W 009°60'813.4
2017-Oct-12 08:22N 38°05' W 010°02'513.3
2017-Oct-12 08:00N 38°10' W 010°04'713.0
2017-Oct-12 07:30N 38°16' W 010°06'612.5
2017-Oct-12 07:00N 38°22' W 010°08'612.2
2017-Oct-12 06:30N 38°28' W 010°09'612.1
2017-Oct-12 05:59N 38°34' W 010°11'612.4
2017-Oct-12 05:30N 38°40' W 010°13'612.3
2017-Oct-12 05:00N 38°46' W 010°13'612.2
2017-Oct-12 04:30N 38°53' W 010°13'612.1
2017-Oct-12 04:00N 38°59' W 010°14'612.5
2017-Oct-12 03:30N 39°05' W 010°14'612.9
2017-Oct-12 03:00N 39°11' W 010°13'612.6
2017-Oct-12 02:30N 39°17' W 010°13'612.4
2017-Oct-12 02:00N 39°24' W 010°13'612.6
2017-Oct-12 01:30N 39°30' W 010°13'713.0
2017-Oct-12 01:00N 39°36' W 010°13'612.9
2017-Oct-12 00:30N 39°43' W 010°13'612.9
2017-Oct-12 00:00N 39°49' W 010°13'612.6
2017-Oct-11 23:30N 39°56' W 010°13'612.1
2017-Oct-11 23:00N 40°02' W 010°13'812.7
2017-Oct-11 22:25N 40°09' W 010°13'512.4
2017-Oct-11 22:00N 40°14' W 010°14'713.3
2017-Oct-11 21:30N 40°21' W 010°13'  
Track history (hours):
 
Tides and Currents Weather Stations Pressure Air Temp Water Temp Dewpoint Dewpoint Depression Visibility Wind Speed Wind Dir Waves Ship Positions

Sikinos

Last reported at 2017-Oct-20 19:30 UTC. Time now 2017-Oct-20 19:42 UTC.
Position N 38°43' W 009°55'.

Length 184 m; draft 7.5 m.

Type: Tanker. MMSI: 241448000.

Date/timePositionNaut miles runAvg speedWind from/ knotsBaromVisibWave heightAir tempDewpointWater temp
2017-Oct-20 19:30N 38°43' W 009°55'510.3
2017-Oct-20 19:00N 38°38' W 009°54'510.8
2017-Oct-20 18:30N 38°32' W 009°53'511.1
2017-Oct-20 18:01N 38°27' W 009°51'611.4
2017-Oct-20 17:30N 38°21' W 009°49'611.2
2017-Oct-20 17:00N 38°16' W 009°48'611.3
2017-Oct-20 16:31N 38°10' W 009°46'611.2
2017-Oct-20 16:00N 38°05' W 009°45'611.4
2017-Oct-20 15:30N 37°59' W 009°43'711.4
2017-Oct-20 14:52N 37°52' W 009°41'1311.8
2017-Oct-20 13:47N 37°40' W 009°37'411.8
2017-Oct-20 13:27N 37°36' W 009°36'2811.2
2017-Oct-20 10:54N 37°08' W 009°28'39 9.8
2017-Oct-20 06:53N 36°40' W 008°54'513.2
2017-Oct-20 06:30N 36°41' W 008°48'713.2
2017-Oct-20 06:00N 36°42' W 008°40'713.2
2017-Oct-20 05:31N 36°44' W 008°32'713.1
2017-Oct-20 05:01N 36°45' W 008°24'713.4
2017-Oct-20 04:31N 36°47' W 008°16'713.6
2017-Oct-20 04:01N 36°49' W 008°08'  
2017-Oct-12 22:54N 36°41' W 008°06'410.6
2017-Oct-12 22:30N 36°39' W 008°11'510.6
2017-Oct-12 22:00N 36°38' W 008°17'510.7
2017-Oct-12 21:30N 36°36' W 008°23'710.5
2017-Oct-12 20:51N 36°33' W 008°31'6 9.9
2017-Oct-12 20:16N 36°31' W 008°38'2 9.7
2017-Oct-12 20:00N 36°30' W 008°40'710.5
2017-Oct-12 19:21N 36°28' W 008°49'410.7
2017-Oct-12 19:00N 36°27' W 008°53'710.6
2017-Oct-12 18:22N 36°26' W 009°01'511.0
2017-Oct-12 17:57N 36°27' W 009°07'511.0
2017-Oct-12 17:30N 36°28' W 009°13'610.7
2017-Oct-12 16:57N 36°29' W 009°20'1110.3
2017-Oct-12 15:52N 36°37' W 009°30'4811.6
2017-Oct-12 11:42N 37°23' W 009°50'312.5
2017-Oct-12 11:27N 37°26' W 009°50'612.6
2017-Oct-12 11:00N 37°32' W 009°52'1112.6
2017-Oct-12 10:09N 37°42' W 009°55'313.3
2017-Oct-12 09:57N 37°45' W 009°56'613.5
2017-Oct-12 09:28N 37°51' W 009°58'613.5
2017-Oct-12 09:00N 37°57' W 009°60'813.4
2017-Oct-12 08:22N 38°05' W 010°02'513.3
2017-Oct-12 08:00N 38°10' W 010°04'713.0
2017-Oct-12 07:30N 38°16' W 010°06'612.5
2017-Oct-12 07:00N 38°22' W 010°08'612.2
2017-Oct-12 06:30N 38°28' W 010°09'612.1
2017-Oct-12 05:59N 38°34' W 010°11'612.4
2017-Oct-12 05:30N 38°40' W 010°13'612.3
2017-Oct-12 05:00N 38°46' W 010°13'612.2
2017-Oct-12 04:30N 38°53' W 010°13'612.1
2017-Oct-12 04:00N 38°59' W 010°14'612.5
2017-Oct-12 03:30N 39°05' W 010°14'612.9
2017-Oct-12 03:00N 39°11' W 010°13'612.6
2017-Oct-12 02:30N 39°17' W 010°13'612.4
2017-Oct-12 02:00N 39°24' W 010°13'612.6
2017-Oct-12 01:30N 39°30' W 010°13'713.0
2017-Oct-12 01:00N 39°36' W 010°13'612.9
2017-Oct-12 00:30N 39°43' W 010°13'612.9
2017-Oct-12 00:00N 39°49' W 010°13'612.6
2017-Oct-11 23:30N 39°56' W 010°13'612.1
2017-Oct-11 23:00N 40°02' W 010°13'812.7
2017-Oct-11 22:25N 40°09' W 010°13'512.4
2017-Oct-11 22:00N 40°14' W 010°14'713.3
2017-Oct-11 21:30N 40°21' W 010°13'  

Dump ship's entire track history